sensor_id;sensor_type;location;lat;lon;timestamp;P1;durP1;ratioP1;P2;durP2;ratioP2
1775;SDS011;885;42.626;23.200;2023-04-30T00:00:02;5.23;;;4.70;;
1775;SDS011;885;42.626;23.200;2023-04-30T00:02:32;4.37;;;3.83;;
1775;SDS011;885;42.626;23.200;2023-04-30T00:04:59;4.63;;;4.20;;
1775;SDS011;885;42.626;23.200;2023-04-30T00:07:27;4.57;;;4.17;;
1775;SDS011;885;42.626;23.200;2023-04-30T00:09:54;4.30;;;3.90;;
1775;SDS011;885;42.626;23.200;2023-04-30T00:12:21;5.27;;;4.83;;
1775;SDS011;885;42.626;23.200;2023-04-30T00:14:47;4.80;;;4.40;;
1775;SDS011;885;42.626;23.200;2023-04-30T00:17:14;6.57;;;4.30;;
1775;SDS011;885;42.626;23.200;2023-04-30T00:19:41;8.60;;;4.50;;
1775;SDS011;885;42.626;23.200;2023-04-30T00:22:14;5.13;;;4.40;;
1775;SDS011;885;42.626;23.200;2023-04-30T00:24:43;5.33;;;4.60;;
1775;SDS011;885;42.626;23.200;2023-04-30T00:27:09;4.77;;;4.20;;
1775;SDS011;885;42.626;23.200;2023-04-30T00:29:36;5.77;;;4.10;;
1775;SDS011;885;42.626;23.200;2023-04-30T00:32:03;4.80;;;4.40;;
1775;SDS011;885;42.626;23.200;2023-04-30T00:34:31;14.90;;;7.33;;
1775;SDS011;885;42.626;23.200;2023-04-30T00:36:57;7.00;;;6.30;;
1775;SDS011;885;42.626;23.200;2023-04-30T00:39:24;5.37;;;4.63;;
1775;SDS011;885;42.626;23.200;2023-04-30T00:41:52;6.20;;;5.23;;
1775;SDS011;885;42.626;23.200;2023-04-30T00:44:19;6.03;;;4.77;;
1775;SDS011;885;42.626;23.200;2023-04-30T00:46:46;7.27;;;5.53;;
1775;SDS011;885;42.626;23.200;2023-04-30T00:49:12;10.63;;;5.50;;
1775;SDS011;885;42.626;23.200;2023-04-30T00:51:39;4.97;;;4.53;;
1775;SDS011;885;42.626;23.200;2023-04-30T00:54:06;5.50;;;4.87;;
1775;SDS011;885;42.626;23.200;2023-04-30T00:56:33;5.93;;;5.30;;
1775;SDS011;885;42.626;23.200;2023-04-30T00:59:02;8.40;;;5.90;;
1775;SDS011;885;42.626;23.200;2023-04-30T01:01:28;9.87;;;6.50;;
1775;SDS011;885;42.626;23.200;2023-04-30T01:03:56;6.60;;;5.20;;
1775;SDS011;885;42.626;23.200;2023-04-30T01:06:23;5.73;;;4.77;;
1775;SDS011;885;42.626;23.200;2023-04-30T01:08:51;6.80;;;4.83;;
1775;SDS011;885;42.626;23.200;2023-04-30T01:11:22;5.27;;;4.73;;
1775;SDS011;885;42.626;23.200;2023-04-30T01:14:07;4.90;;;3.73;;
1775;SDS011;885;42.626;23.200;2023-04-30T01:16:39;7.17;;;4.50;;
1775;SDS011;885;42.626;23.200;2023-04-30T01:19:16;7.53;;;6.07;;
1775;SDS011;885;42.626;23.200;2023-04-30T01:21:54;5.60;;;5.10;;
1775;SDS011;885;42.626;23.200;2023-04-30T01:24:31;5.57;;;5.07;;
1775;SDS011;885;42.626;23.200;2023-04-30T01:27:22;4.80;;;4.13;;
1775;SDS011;885;42.626;23.200;2023-04-30T01:29:58;5.03;;;4.53;;
1775;SDS011;885;42.626;23.200;2023-04-30T01:32:27;7.03;;;4.87;;
1775;SDS011;885;42.626;23.200;2023-04-30T01:34:54;7.13;;;5.10;;
1775;SDS011;885;42.626;23.200;2023-04-30T01:37:21;5.17;;;4.70;;
1775;SDS011;885;42.626;23.200;2023-04-30T01:40:00;6.13;;;4.93;;
1775;SDS011;885;42.626;23.200;2023-04-30T01:42:39;6.40;;;4.87;;
1775;SDS011;885;42.626;23.200;2023-04-30T01:48:02;6.63;;;4.97;;
1775;SDS011;885;42.626;23.200;2023-04-30T01:50:37;6.10;;;5.50;;
1775;SDS011;885;42.626;23.200;2023-04-30T01:53:08;5.50;;;4.97;;
1775;SDS011;885;42.626;23.200;2023-04-30T01:55:40;4.43;;;4.03;;
1775;SDS011;885;42.626;23.200;2023-04-30T01:58:09;5.80;;;4.40;;
1775;SDS011;885;42.626;23.200;2023-04-30T02:00:40;6.47;;;5.00;;
1775;SDS011;885;42.626;23.200;2023-04-30T02:03:06;6.17;;;5.20;;
1775;SDS011;885;42.626;23.200;2023-04-30T02:05:33;5.93;;;5.37;;
1775;SDS011;885;42.626;23.200;2023-04-30T02:08:00;4.90;;;4.40;;
1775;SDS011;885;42.626;23.200;2023-04-30T02:10:27;4.60;;;4.20;;
1775;SDS011;885;42.626;23.200;2023-04-30T02:12:54;5.07;;;4.03;;
1775;SDS011;885;42.626;23.200;2023-04-30T02:15:21;5.90;;;4.60;;
1775;SDS011;885;42.626;23.200;2023-04-30T02:17:49;7.67;;;6.87;;
1775;SDS011;885;42.626;23.200;2023-04-30T02:20:16;7.20;;;6.50;;
1775;SDS011;885;42.626;23.200;2023-04-30T02:22:43;6.60;;;6.00;;
1775;SDS011;885;42.626;23.200;2023-04-30T02:25:09;8.17;;;6.23;;
1775;SDS011;885;42.626;23.200;2023-04-30T02:27:36;6.47;;;5.97;;
1775;SDS011;885;42.626;23.200;2023-04-30T02:30:04;6.47;;;5.80;;
1775;SDS011;885;42.626;23.200;2023-04-30T02:32:31;6.17;;;5.50;;
1775;SDS011;885;42.626;23.200;2023-04-30T02:34:59;7.90;;;5.97;;
1775;SDS011;885;42.626;23.200;2023-04-30T02:37:26;8.07;;;7.47;;
1775;SDS011;885;42.626;23.200;2023-04-30T02:39:53;6.47;;;5.13;;
1775;SDS011;885;42.626;23.200;2023-04-30T02:42:20;17.83;;;10.53;;
1775;SDS011;885;42.626;23.200;2023-04-30T02:44:46;15.83;;;11.67;;
1775;SDS011;885;42.626;23.200;2023-04-30T02:47:13;12.50;;;9.67;;
1775;SDS011;885;42.626;23.200;2023-04-30T02:49:40;11.80;;;9.60;;
1775;SDS011;885;42.626;23.200;2023-04-30T02:52:08;11.17;;;7.60;;
1775;SDS011;885;42.626;23.200;2023-04-30T02:54:35;7.70;;;6.60;;
1775;SDS011;885;42.626;23.200;2023-04-30T02:57:01;10.20;;;6.13;;
1775;SDS011;885;42.626;23.200;2023-04-30T02:59:28;7.50;;;5.13;;
1775;SDS011;885;42.626;23.200;2023-04-30T03:01:55;6.93;;;5.10;;
1775;SDS011;885;42.626;23.200;2023-04-30T03:04:22;6.83;;;4.70;;
1775;SDS011;885;42.626;23.200;2023-04-30T03:06:49;5.43;;;4.93;;
1775;SDS011;885;42.626;23.200;2023-04-30T03:09:17;5.60;;;5.03;;
1775;SDS011;885;42.626;23.200;2023-04-30T03:11:44;8.53;;;5.73;;
1775;SDS011;885;42.626;23.200;2023-04-30T03:14:10;6.80;;;6.10;;
1775;SDS011;885;42.626;23.200;2023-04-30T03:16:37;6.80;;;6.10;;
1775;SDS011;885;42.626;23.200;2023-04-30T03:19:04;6.63;;;6.03;;
1775;SDS011;885;42.626;23.200;2023-04-30T03:21:30;8.47;;;6.80;;
1775;SDS011;885;42.626;23.200;2023-04-30T03:23:57;8.63;;;6.60;;
1775;SDS011;885;42.626;23.200;2023-04-30T03:26:26;5.53;;;5.13;;
1775;SDS011;885;42.626;23.200;2023-04-30T03:28:53;6.50;;;5.80;;
1775;SDS011;885;42.626;23.200;2023-04-30T03:31:20;5.73;;;5.23;;
1775;SDS011;885;42.626;23.200;2023-04-30T03:33:47;6.03;;;5.40;;
1775;SDS011;885;42.626;23.200;2023-04-30T03:36:13;6.17;;;5.60;;
1775;SDS011;885;42.626;23.200;2023-04-30T03:38:40;6.13;;;5.63;;
1775;SDS011;885;42.626;23.200;2023-04-30T03:41:07;8.17;;;6.60;;
1775;SDS011;885;42.626;23.200;2023-04-30T03:43:35;7.27;;;6.30;;
1775;SDS011;885;42.626;23.200;2023-04-30T03:46:02;6.40;;;5.90;;
1775;SDS011;885;42.626;23.200;2023-04-30T03:48:29;8.67;;;5.83;;
1775;SDS011;885;42.626;23.200;2023-04-30T03:50:56;5.90;;;5.30;;
1775;SDS011;885;42.626;23.200;2023-04-30T03:53:23;5.30;;;4.80;;
1775;SDS011;885;42.626;23.200;2023-04-30T03:55:51;11.67;;;7.23;;
1775;SDS011;885;42.626;23.200;2023-04-30T03:58:18;11.47;;;7.87;;
1775;SDS011;885;42.626;23.200;2023-04-30T04:00:47;7.10;;;6.40;;
1775;SDS011;885;42.626;23.200;2023-04-30T04:03:14;9.03;;;6.97;;
1775;SDS011;885;42.626;23.200;2023-04-30T04:05:41;17.90;;;16.00;;
1775;SDS011;885;42.626;23.200;2023-04-30T04:08:08;7.20;;;6.27;;
1775;SDS011;885;42.626;23.200;2023-04-30T04:10:35;9.37;;;6.63;;
1775;SDS011;885;42.626;23.200;2023-04-30T04:13:02;10.80;;;7.93;;
1775;SDS011;885;42.626;23.200;2023-04-30T04:15:29;7.30;;;6.70;;
1775;SDS011;885;42.626;23.200;2023-04-30T04:17:57;8.27;;;7.47;;
1775;SDS011;885;42.626;23.200;2023-04-30T04:20:24;9.30;;;6.00;;
1775;SDS011;885;42.626;23.200;2023-04-30T04:22:51;10.13;;;8.80;;
1775;SDS011;885;42.626;23.200;2023-04-30T04:25:18;29.13;;;23.20;;
1775;SDS011;885;42.626;23.200;2023-04-30T04:27:44;12.33;;;9.10;;
1775;SDS011;885;42.626;23.200;2023-04-30T04:30:11;14.03;;;8.50;;
1775;SDS011;885;42.626;23.200;2023-04-30T04:32:39;10.77;;;7.47;;
1775;SDS011;885;42.626;23.200;2023-04-30T04:35:12;8.03;;;5.77;;
1775;SDS011;885;42.626;23.200;2023-04-30T04:37:38;5.00;;;4.57;;
1775;SDS011;885;42.626;23.200;2023-04-30T04:40:06;7.03;;;5.80;;
1775;SDS011;885;42.626;23.200;2023-04-30T04:42:34;8.40;;;6.60;;
1775;SDS011;885;42.626;23.200;2023-04-30T04:45:02;5.07;;;4.43;;
1775;SDS011;885;42.626;23.200;2023-04-30T04:47:30;8.83;;;7.10;;
1775;SDS011;885;42.626;23.200;2023-04-30T04:49:56;58.30;;;35.40;;
1775;SDS011;885;42.626;23.200;2023-04-30T04:52:25;12.57;;;9.60;;
1775;SDS011;885;42.626;23.200;2023-04-30T04:54:51;12.43;;;7.90;;
1775;SDS011;885;42.626;23.200;2023-04-30T04:57:19;8.60;;;7.43;;
1775;SDS011;885;42.626;23.200;2023-04-30T04:59:46;8.07;;;6.17;;
1775;SDS011;885;42.626;23.200;2023-04-30T05:02:13;6.10;;;5.47;;
1775;SDS011;885;42.626;23.200;2023-04-30T05:04:40;5.97;;;5.37;;
1775;SDS011;885;42.626;23.200;2023-04-30T05:07:07;5.40;;;4.60;;
1775;SDS011;885;42.626;23.200;2023-04-30T05:09:35;5.73;;;4.73;;
1775;SDS011;885;42.626;23.200;2023-04-30T05:12:02;6.10;;;4.87;;
1775;SDS011;885;42.626;23.200;2023-04-30T05:14:29;5.80;;;5.30;;
1775;SDS011;885;42.626;23.200;2023-04-30T05:16:55;7.80;;;5.40;;
1775;SDS011;885;42.626;23.200;2023-04-30T05:19:22;9.70;;;6.70;;
1775;SDS011;885;42.626;23.200;2023-04-30T05:21:49;14.13;;;12.73;;
1775;SDS011;885;42.626;23.200;2023-04-30T05:24:16;9.07;;;8.27;;
1775;SDS011;885;42.626;23.200;2023-04-30T05:26:44;6.00;;;4.63;;
1775;SDS011;885;42.626;23.200;2023-04-30T05:29:11;7.40;;;5.60;;
1775;SDS011;885;42.626;23.200;2023-04-30T05:31:38;12.67;;;10.53;;
1775;SDS011;885;42.626;23.200;2023-04-30T05:34:04;13.73;;;10.87;;
1775;SDS011;885;42.626;23.200;2023-04-30T05:36:31;11.20;;;10.07;;
1775;SDS011;885;42.626;23.200;2023-04-30T05:38:58;11.17;;;8.63;;
1775;SDS011;885;42.626;23.200;2023-04-30T05:41:25;12.80;;;8.87;;
1775;SDS011;885;42.626;23.200;2023-04-30T05:43:53;8.83;;;6.87;;
1775;SDS011;885;42.626;23.200;2023-04-30T05:46:19;8.90;;;7.30;;
1775;SDS011;885;42.626;23.200;2023-04-30T05:48:46;7.70;;;6.47;;
1775;SDS011;885;42.626;23.200;2023-04-30T05:51:13;9.27;;;6.87;;
1775;SDS011;885;42.626;23.200;2023-04-30T05:53:40;5.50;;;4.67;;
1775;SDS011;885;42.626;23.200;2023-04-30T05:56:07;6.43;;;5.10;;
1775;SDS011;885;42.626;23.200;2023-04-30T05:58:34;26.40;;;19.40;;
1775;SDS011;885;42.626;23.200;2023-04-30T06:01:02;14.80;;;13.23;;
1775;SDS011;885;42.626;23.200;2023-04-30T06:03:29;18.17;;;13.83;;
1775;SDS011;885;42.626;23.200;2023-04-30T06:05:56;43.00;;;32.03;;
1775;SDS011;885;42.626;23.200;2023-04-30T06:08:23;47.63;;;36.27;;
1775;SDS011;885;42.626;23.200;2023-04-30T06:10:49;46.50;;;33.53;;
1775;SDS011;885;42.626;23.200;2023-04-30T06:13:16;110.83;;;75.53;;
1775;SDS011;885;42.626;23.200;2023-04-30T06:15:44;62.17;;;42.77;;
1775;SDS011;885;42.626;23.200;2023-04-30T06:18:12;13.87;;;9.83;;
1775;SDS011;885;42.626;23.200;2023-04-30T06:20:39;15.93;;;12.30;;
1775;SDS011;885;42.626;23.200;2023-04-30T06:23:06;26.40;;;19.17;;
1775;SDS011;885;42.626;23.200;2023-04-30T06:25:32;29.73;;;20.43;;
1775;SDS011;885;42.626;23.200;2023-04-30T06:28:00;43.90;;;36.40;;
1775;SDS011;885;42.626;23.200;2023-04-30T06:30:26;41.50;;;35.00;;
1775;SDS011;885;42.626;23.200;2023-04-30T06:32:55;22.57;;;19.70;;
1775;SDS011;885;42.626;23.200;2023-04-30T06:35:23;20.70;;;17.10;;
1775;SDS011;885;42.626;23.200;2023-04-30T06:37:50;14.37;;;11.90;;
1775;SDS011;885;42.626;23.200;2023-04-30T06:40:17;11.70;;;9.40;;
1775;SDS011;885;42.626;23.200;2023-04-30T06:42:44;13.60;;;7.57;;
1775;SDS011;885;42.626;23.200;2023-04-30T06:45:11;15.60;;;12.27;;
1775;SDS011;885;42.626;23.200;2023-04-30T06:47:39;15.80;;;13.60;;
1775;SDS011;885;42.626;23.200;2023-04-30T06:50:07;8.20;;;7.17;;
1775;SDS011;885;42.626;23.200;2023-04-30T06:52:35;6.93;;;4.80;;
1775;SDS011;885;42.626;23.200;2023-04-30T06:55:02;5.73;;;5.10;;
1775;SDS011;885;42.626;23.200;2023-04-30T06:57:29;5.00;;;4.50;;
1775;SDS011;885;42.626;23.200;2023-04-30T06:59:56;5.77;;;5.20;;
1775;SDS011;885;42.626;23.200;2023-04-30T07:02:23;4.70;;;4.10;;
1775;SDS011;885;42.626;23.200;2023-04-30T07:04:49;9.93;;;8.70;;
1775;SDS011;885;42.626;23.200;2023-04-30T07:07:16;5.53;;;4.40;;
1775;SDS011;885;42.626;23.200;2023-04-30T07:09:44;5.17;;;4.67;;
1775;SDS011;885;42.626;23.200;2023-04-30T07:12:11;6.50;;;5.03;;
1775;SDS011;885;42.626;23.200;2023-04-30T07:14:38;4.57;;;4.17;;
1775;SDS011;885;42.626;23.200;2023-04-30T07:17:05;5.53;;;4.73;;
1775;SDS011;885;42.626;23.200;2023-04-30T07:19:31;6.50;;;4.50;;
1775;SDS011;885;42.626;23.200;2023-04-30T07:21:58;5.17;;;4.43;;
1775;SDS011;885;42.626;23.200;2023-04-30T07:24:25;4.97;;;4.40;;
1775;SDS011;885;42.626;23.200;2023-04-30T07:26:53;6.60;;;3.67;;
1775;SDS011;885;42.626;23.200;2023-04-30T07:29:20;8.70;;;4.80;;
1775;SDS011;885;42.626;23.200;2023-04-30T07:31:47;8.60;;;5.80;;
1775;SDS011;885;42.626;23.200;2023-04-30T07:34:14;6.00;;;4.73;;
1775;SDS011;885;42.626;23.200;2023-04-30T07:36:41;5.80;;;4.90;;
1775;SDS011;885;42.626;23.200;2023-04-30T07:39:07;7.37;;;4.57;;
1775;SDS011;885;42.626;23.200;2023-04-30T07:41:35;5.43;;;4.70;;
1775;SDS011;885;42.626;23.200;2023-04-30T07:44:04;8.33;;;4.87;;
1775;SDS011;885;42.626;23.200;2023-04-30T07:46:31;8.33;;;5.93;;
1775;SDS011;885;42.626;23.200;2023-04-30T07:48:57;10.73;;;7.23;;
1775;SDS011;885;42.626;23.200;2023-04-30T07:51:24;9.93;;;6.87;;
1775;SDS011;885;42.626;23.200;2023-04-30T07:53:51;10.20;;;7.53;;
1775;SDS011;885;42.626;23.200;2023-04-30T07:56:18;21.30;;;10.07;;
1775;SDS011;885;42.626;23.200;2023-04-30T07:58:45;13.03;;;9.00;;
1775;SDS011;885;42.626;23.200;2023-04-30T08:01:13;13.70;;;7.53;;
1775;SDS011;885;42.626;23.200;2023-04-30T08:03:40;18.20;;;9.47;;
1775;SDS011;885;42.626;23.200;2023-04-30T08:06:07;19.30;;;9.57;;
1775;SDS011;885;42.626;23.200;2023-04-30T08:08:34;20.70;;;10.47;;
1775;SDS011;885;42.626;23.200;2023-04-30T08:11:01;16.50;;;8.83;;
1775;SDS011;885;42.626;23.200;2023-04-30T08:13:28;13.80;;;8.33;;
1775;SDS011;885;42.626;23.200;2023-04-30T08:15:54;14.90;;;8.43;;
1775;SDS011;885;42.626;23.200;2023-04-30T08:18:23;17.90;;;9.60;;
1775;SDS011;885;42.626;23.200;2023-04-30T08:20:49;12.47;;;8.33;;
1775;SDS011;885;42.626;23.200;2023-04-30T08:23:16;19.93;;;9.67;;
1775;SDS011;885;42.626;23.200;2023-04-30T08:25:43;14.23;;;8.97;;
1775;SDS011;885;42.626;23.200;2023-04-30T08:28:10;10.87;;;8.20;;
1775;SDS011;885;42.626;23.200;2023-04-30T08:30:37;11.00;;;7.27;;
1775;SDS011;885;42.626;23.200;2023-04-30T08:33:04;12.80;;;7.70;;
1775;SDS011;885;42.626;23.200;2023-04-30T08:35:32;13.30;;;7.37;;
1775;SDS011;885;42.626;23.200;2023-04-30T08:37:59;12.87;;;6.70;;
1775;SDS011;885;42.626;23.200;2023-04-30T08:40:26;12.70;;;7.43;;
1775;SDS011;885;42.626;23.200;2023-04-30T08:42:55;11.33;;;7.20;;
1775;SDS011;885;42.626;23.200;2023-04-30T08:45:30;15.10;;;6.13;;
1775;SDS011;885;42.626;23.200;2023-04-30T08:47:57;9.17;;;6.00;;
1775;SDS011;885;42.626;23.200;2023-04-30T08:50:25;9.43;;;6.43;;
1775;SDS011;885;42.626;23.200;2023-04-30T08:52:54;9.27;;;6.80;;
1775;SDS011;885;42.626;23.200;2023-04-30T08:55:21;9.73;;;6.60;;
1775;SDS011;885;42.626;23.200;2023-04-30T08:57:50;10.10;;;6.17;;
1775;SDS011;885;42.626;23.200;2023-04-30T09:00:16;7.90;;;6.10;;
1775;SDS011;885;42.626;23.200;2023-04-30T09:02:43;9.67;;;6.23;;
1775;SDS011;885;42.626;23.200;2023-04-30T09:05:12;9.90;;;6.47;;
1775;SDS011;885;42.626;23.200;2023-04-30T09:07:41;6.23;;;5.63;;
1775;SDS011;885;42.626;23.200;2023-04-30T09:10:14;13.83;;;6.10;;
1775;SDS011;885;42.626;23.200;2023-04-30T09:12:44;7.00;;;5.97;;
1775;SDS011;885;42.626;23.200;2023-04-30T09:15:23;6.13;;;5.50;;
1775;SDS011;885;42.626;23.200;2023-04-30T09:17:49;7.40;;;6.13;;
1775;SDS011;885;42.626;23.200;2023-04-30T09:20:16;5.63;;;5.23;;
1775;SDS011;885;42.626;23.200;2023-04-30T09:22:43;8.00;;;5.60;;
1775;SDS011;885;42.626;23.200;2023-04-30T09:25:10;8.30;;;5.70;;
1775;SDS011;885;42.626;23.200;2023-04-30T09:27:38;6.43;;;5.60;;
1775;SDS011;885;42.626;23.200;2023-04-30T09:30:06;7.93;;;6.73;;
1775;SDS011;885;42.626;23.200;2023-04-30T09:32:33;6.53;;;5.83;;
1775;SDS011;885;42.626;23.200;2023-04-30T09:35:00;6.20;;;5.53;;
1775;SDS011;885;42.626;23.200;2023-04-30T09:37:34;8.47;;;7.63;;
1775;SDS011;885;42.626;23.200;2023-04-30T09:40:01;6.53;;;5.93;;
1775;SDS011;885;42.626;23.200;2023-04-30T09:42:29;9.00;;;6.40;;
1775;SDS011;885;42.626;23.200;2023-04-30T09:44:57;9.07;;;5.07;;
1775;SDS011;885;42.626;23.200;2023-04-30T09:47:28;8.77;;;6.63;;
1775;SDS011;885;42.626;23.200;2023-04-30T09:49:56;6.60;;;5.63;;
1775;SDS011;885;42.626;23.200;2023-04-30T09:52:25;7.73;;;6.50;;
1775;SDS011;885;42.626;23.200;2023-04-30T09:54:52;8.10;;;5.70;;
1775;SDS011;885;42.626;23.200;2023-04-30T09:57:20;8.63;;;6.20;;
1775;SDS011;885;42.626;23.200;2023-04-30T09:59:49;7.30;;;6.60;;
1775;SDS011;885;42.626;23.200;2023-04-30T10:02:19;6.03;;;5.40;;
1775;SDS011;885;42.626;23.200;2023-04-30T10:04:48;6.33;;;5.00;;
1775;SDS011;885;42.626;23.200;2023-04-30T10:07:19;6.03;;;5.43;;
1775;SDS011;885;42.626;23.200;2023-04-30T10:09:48;6.63;;;5.07;;
1775;SDS011;885;42.626;23.200;2023-04-30T10:12:19;6.87;;;5.27;;
1775;SDS011;885;42.626;23.200;2023-04-30T10:14:49;7.20;;;5.73;;
1775;SDS011;885;42.626;23.200;2023-04-30T10:17:21;10.93;;;6.77;;
1775;SDS011;885;42.626;23.200;2023-04-30T10:19:53;8.03;;;7.13;;
1775;SDS011;885;42.626;23.200;2023-04-30T10:22:26;9.13;;;6.90;;
1775;SDS011;885;42.626;23.200;2023-04-30T10:24:55;7.53;;;6.80;;
1775;SDS011;885;42.626;23.200;2023-04-30T10:27:22;8.30;;;7.27;;
1775;SDS011;885;42.626;23.200;2023-04-30T10:29:49;8.03;;;7.23;;
1775;SDS011;885;42.626;23.200;2023-04-30T10:32:16;7.90;;;7.17;;
1775;SDS011;885;42.626;23.200;2023-04-30T10:34:54;10.40;;;6.80;;
1775;SDS011;885;42.626;23.200;2023-04-30T10:37:42;8.80;;;8.00;;
1775;SDS011;885;42.626;23.200;2023-04-30T10:40:13;7.50;;;6.40;;
1775;SDS011;885;42.626;23.200;2023-04-30T10:42:44;8.97;;;7.30;;
1775;SDS011;885;42.626;23.200;2023-04-30T10:45:11;8.00;;;6.57;;
1775;SDS011;885;42.626;23.200;2023-04-30T10:47:41;13.70;;;7.27;;
1775;SDS011;885;42.626;23.200;2023-04-30T10:50:11;6.80;;;6.07;;
1775;SDS011;885;42.626;23.200;2023-04-30T10:52:38;7.40;;;6.73;;
1775;SDS011;885;42.626;23.200;2023-04-30T10:55:05;6.33;;;5.80;;
1775;SDS011;885;42.626;23.200;2023-04-30T10:57:39;6.63;;;6.00;;
1775;SDS011;885;42.626;23.200;2023-04-30T11:00:20;5.20;;;4.80;;
1775;SDS011;885;42.626;23.200;2023-04-30T11:02:54;5.90;;;5.40;;
1775;SDS011;885;42.626;23.200;2023-04-30T11:07:59;5.27;;;4.77;;
1775;SDS011;885;42.626;23.200;2023-04-30T11:10:26;6.27;;;5.70;;
1775;SDS011;885;42.626;23.200;2023-04-30T11:12:57;7.03;;;6.33;;
1775;SDS011;885;42.626;23.200;2023-04-30T11:15:32;7.10;;;6.40;;
1775;SDS011;885;42.626;23.200;2023-04-30T11:18:00;6.53;;;5.90;;
1775;SDS011;885;42.626;23.200;2023-04-30T11:20:27;7.40;;;5.30;;
1775;SDS011;885;42.626;23.200;2023-04-30T11:23:08;5.93;;;5.43;;
1775;SDS011;885;42.626;23.200;2023-04-30T11:25:39;5.73;;;5.23;;
1775;SDS011;885;42.626;23.200;2023-04-30T11:28:06;5.40;;;4.90;;
1775;SDS011;885;42.626;23.200;2023-04-30T11:30:34;5.57;;;4.87;;
1775;SDS011;885;42.626;23.200;2023-04-30T11:33:01;7.20;;;5.20;;
1775;SDS011;885;42.626;23.200;2023-04-30T11:35:29;4.97;;;4.57;;
1775;SDS011;885;42.626;23.200;2023-04-30T11:37:57;5.30;;;4.90;;
1775;SDS011;885;42.626;23.200;2023-04-30T11:40:26;5.03;;;4.63;;
1775;SDS011;885;42.626;23.200;2023-04-30T11:42:54;5.37;;;4.87;;
1775;SDS011;885;42.626;23.200;2023-04-30T11:45:21;5.00;;;4.50;;
1775;SDS011;885;42.626;23.200;2023-04-30T11:47:49;6.20;;;5.37;;
1775;SDS011;885;42.626;23.200;2023-04-30T11:50:18;4.87;;;4.47;;
1775;SDS011;885;42.626;23.200;2023-04-30T11:52:52;5.50;;;5.00;;
1775;SDS011;885;42.626;23.200;2023-04-30T11:55:19;6.57;;;5.97;;
1775;SDS011;885;42.626;23.200;2023-04-30T11:57:49;5.90;;;5.30;;
1775;SDS011;885;42.626;23.200;2023-04-30T12:00:17;11.00;;;5.07;;
1775;SDS011;885;42.626;23.200;2023-04-30T12:02:46;5.30;;;4.90;;
1775;SDS011;885;42.626;23.200;2023-04-30T12:05:15;5.50;;;4.50;;
1775;SDS011;885;42.626;23.200;2023-04-30T12:07:48;6.83;;;5.30;;
1775;SDS011;885;42.626;23.200;2023-04-30T12:10:18;6.50;;;5.50;;
1775;SDS011;885;42.626;23.200;2023-04-30T12:12:45;4.53;;;4.13;;
1775;SDS011;885;42.626;23.200;2023-04-30T12:15:15;5.07;;;4.60;;
1775;SDS011;885;42.626;23.200;2023-04-30T12:17:43;4.67;;;4.20;;
1775;SDS011;885;42.626;23.200;2023-04-30T12:20:11;3.80;;;3.50;;
1775;SDS011;885;42.626;23.200;2023-04-30T12:22:40;3.53;;;3.03;;
1775;SDS011;885;42.626;23.200;2023-04-30T12:25:08;3.43;;;3.13;;
1775;SDS011;885;42.626;23.200;2023-04-30T12:27:38;3.93;;;3.30;;
1775;SDS011;885;42.626;23.200;2023-04-30T12:30:06;4.67;;;4.17;;
1775;SDS011;885;42.626;23.200;2023-04-30T12:32:39;3.90;;;3.50;;
1775;SDS011;885;42.626;23.200;2023-04-30T12:35:07;3.37;;;3.17;;
1775;SDS011;885;42.626;23.200;2023-04-30T12:37:40;4.53;;;3.60;;
1775;SDS011;885;42.626;23.200;2023-04-30T12:40:08;4.90;;;4.50;;
1775;SDS011;885;42.626;23.200;2023-04-30T12:42:36;7.70;;;5.10;;
1775;SDS011;885;42.626;23.200;2023-04-30T12:45:02;5.97;;;4.90;;
1775;SDS011;885;42.626;23.200;2023-04-30T12:47:30;5.60;;;5.07;;
1775;SDS011;885;42.626;23.200;2023-04-30T12:49:58;5.53;;;4.97;;
1775;SDS011;885;42.626;23.200;2023-04-30T12:52:26;5.33;;;4.90;;
1775;SDS011;885;42.626;23.200;2023-04-30T12:54:53;5.10;;;4.70;;
1775;SDS011;885;42.626;23.200;2023-04-30T12:57:20;5.03;;;4.70;;
1775;SDS011;885;42.626;23.200;2023-04-30T12:59:56;5.43;;;4.93;;
1775;SDS011;885;42.626;23.200;2023-04-30T13:02:25;4.07;;;3.70;;
1775;SDS011;885;42.626;23.200;2023-04-30T13:04:53;4.40;;;4.00;;
1775;SDS011;885;42.626;23.200;2023-04-30T13:07:22;4.73;;;4.33;;
1775;SDS011;885;42.626;23.200;2023-04-30T13:09:49;6.10;;;5.50;;
1775;SDS011;885;42.626;23.200;2023-04-30T13:12:16;5.40;;;4.37;;
1775;SDS011;885;42.626;23.200;2023-04-30T13:14:43;4.10;;;3.80;;
1775;SDS011;885;42.626;23.200;2023-04-30T13:17:10;4.57;;;3.87;;
1775;SDS011;885;42.626;23.200;2023-04-30T13:19:38;5.83;;;4.10;;
1775;SDS011;885;42.626;23.200;2023-04-30T13:22:04;4.10;;;3.70;;
1775;SDS011;885;42.626;23.200;2023-04-30T13:24:33;4.00;;;3.70;;
1775;SDS011;885;42.626;23.200;2023-04-30T13:26:59;10.37;;;4.17;;
1775;SDS011;885;42.626;23.200;2023-04-30T13:29:26;3.50;;;3.20;;
1775;SDS011;885;42.626;23.200;2023-04-30T13:31:53;3.60;;;3.30;;
1775;SDS011;885;42.626;23.200;2023-04-30T13:34:20;5.13;;;2.93;;
1775;SDS011;885;42.626;23.200;2023-04-30T13:36:47;3.37;;;3.07;;
1775;SDS011;885;42.626;23.200;2023-04-30T13:39:14;10.43;;;3.57;;
1775;SDS011;885;42.626;23.200;2023-04-30T13:41:42;3.00;;;2.80;;
1775;SDS011;885;42.626;23.200;2023-04-30T13:44:09;9.87;;;3.60;;
1775;SDS011;885;42.626;23.200;2023-04-30T13:46:36;4.30;;;3.20;;
1775;SDS011;885;42.626;23.200;2023-04-30T13:49:03;4.50;;;4.10;;
1775;SDS011;885;42.626;23.200;2023-04-30T13:51:32;3.87;;;3.47;;
1775;SDS011;885;42.626;23.200;2023-04-30T13:53:59;3.97;;;3.67;;
1775;SDS011;885;42.626;23.200;2023-04-30T13:56:26;8.67;;;4.50;;
1775;SDS011;885;42.626;23.200;2023-04-30T13:58:54;6.33;;;4.40;;
1775;SDS011;885;42.626;23.200;2023-04-30T14:01:21;6.00;;;4.57;;
1775;SDS011;885;42.626;23.200;2023-04-30T14:03:48;9.23;;;4.17;;
1775;SDS011;885;42.626;23.200;2023-04-30T14:06:15;9.93;;;4.00;;
1775;SDS011;885;42.626;23.200;2023-04-30T14:08:42;7.60;;;5.33;;
1775;SDS011;885;42.626;23.200;2023-04-30T14:11:08;7.37;;;5.03;;
1775;SDS011;885;42.626;23.200;2023-04-30T14:13:35;6.40;;;4.47;;
1775;SDS011;885;42.626;23.200;2023-04-30T14:16:04;5.07;;;3.60;;
1775;SDS011;885;42.626;23.200;2023-04-30T14:18:31;4.00;;;3.40;;
1775;SDS011;885;42.626;23.200;2023-04-30T14:20:57;7.47;;;4.70;;
1775;SDS011;885;42.626;23.200;2023-04-30T14:23:24;8.47;;;5.83;;
1775;SDS011;885;42.626;23.200;2023-04-30T14:25:53;6.80;;;3.93;;
1775;SDS011;885;42.626;23.200;2023-04-30T14:28:20;4.10;;;3.50;;
1775;SDS011;885;42.626;23.200;2023-04-30T14:30:47;3.30;;;3.00;;
1775;SDS011;885;42.626;23.200;2023-04-30T14:33:15;6.33;;;3.40;;
1775;SDS011;885;42.626;23.200;2023-04-30T14:35:42;3.43;;;3.07;;
1775;SDS011;885;42.626;23.200;2023-04-30T14:38:09;3.77;;;2.73;;
1775;SDS011;885;42.626;23.200;2023-04-30T14:40:36;2.53;;;2.33;;
1775;SDS011;885;42.626;23.200;2023-04-30T14:43:03;3.23;;;2.93;;
1775;SDS011;885;42.626;23.200;2023-04-30T14:45:30;2.37;;;2.17;;
1775;SDS011;885;42.626;23.200;2023-04-30T14:47:58;3.23;;;2.87;;
1775;SDS011;885;42.626;23.200;2023-04-30T14:50:26;3.67;;;2.23;;
1775;SDS011;885;42.626;23.200;2023-04-30T14:52:53;3.07;;;2.50;;
1775;SDS011;885;42.626;23.200;2023-04-30T14:55:20;3.53;;;2.90;;
1775;SDS011;885;42.626;23.200;2023-04-30T14:57:47;3.70;;;3.20;;
1775;SDS011;885;42.626;23.200;2023-04-30T15:00:14;2.90;;;2.60;;
1775;SDS011;885;42.626;23.200;2023-04-30T15:02:41;8.00;;;3.23;;
1775;SDS011;885;42.626;23.200;2023-04-30T15:05:08;3.43;;;3.13;;
1775;SDS011;885;42.626;23.200;2023-04-30T15:07:37;3.17;;;2.87;;
1775;SDS011;885;42.626;23.200;2023-04-30T15:10:05;3.40;;;3.10;;
1775;SDS011;885;42.626;23.200;2023-04-30T15:12:33;3.40;;;3.10;;
1775;SDS011;885;42.626;23.200;2023-04-30T15:15:00;3.63;;;3.33;;
1775;SDS011;885;42.626;23.200;2023-04-30T15:17:28;4.13;;;3.73;;
1775;SDS011;885;42.626;23.200;2023-04-30T15:19:55;12.00;;;11.00;;